G.bellini — IKGF — position and weather

sailwx.info

Track history (hours):
 
Tides and Currents Weather Stations Pressure Air Temp Water Temp Dewpoint Dewpoint Depression Visibility Wind Speed Wind Dir Waves Ship Positions

G.bellini

Last reported at 2016-Jul-25 11:29 UTC. Time now 2016-Jul-25 11:59 UTC.
Position N 42°56' E 010°33'.

Length 72 m; draft 3.3 m.

Type: Ship. MMSI: 247041900.

Date/timePositionNaut miles runAvg speedWind from/ knotsBaromVisibWave heightAir tempDewpointWater temp
2016-Jul-25 11:29N 42°56' E 010°33'5 2.6
2016-Jul-25 09:33N 42°51' E 010°30'5 4.7
2016-Jul-25 08:33N 42°55' E 010°34'1 0.4
2016-Jul-25 06:33N 42°55' E 010°33'3 0.2
2016-Jul-24 17:33N 42°52' E 010°30'2 1.0
2016-Jul-24 15:23N 42°51' E 010°29'4 1.4
2016-Jul-24 12:33N 42°54' E 010°32'2 1.7
2016-Jul-24 11:13N 42°56' E 010°33'4 2.2
2016-Jul-24 09:33N 42°53' E 010°31'0 0.2
2016-Jul-24 08:21N 42°53' E 010°31'2 1.2
2016-Jul-24 06:33N 42°54' E 010°33'2 0.2
2016-Jul-23 17:32N 42°53' E 010°31'0 0.3
2016-Jul-23 16:25N 42°52' E 010°30'4 4.7
2016-Jul-23 15:33N 42°49' E 010°27'4 0.2
2016-Jul-22 17:33N 42°52' E 010°31'1 0.8
2016-Jul-22 16:26N 42°53' E 010°31'5 5.6
2016-Jul-22 15:31N 42°49' E 010°27'8 6.3
2016-Jul-22 14:17N 42°56' E 010°33'3 1.6
2016-Jul-22 12:33N 42°53' E 010°31'3 2.2
2016-Jul-22 11:08N 42°56' E 010°34'6 3.5
2016-Jul-22 09:33N 42°51' E 010°30'5 4.9
2016-Jul-22 08:33N 42°55' E 010°34'8 0.5
2016-Jul-21 16:09N 42°49' E 010°27'3 1.2
2016-Jul-21 13:33N 42°51' E 010°29'2 0.4
2016-Jul-21 08:19N 42°53' E 010°32'5 0.3
2016-Jul-20 16:09N 42°49' E 010°27'8 8.5
2016-Jul-20 15:11N 42°56' E 010°33'29 7.8
2016-Jul-20 11:32N 42°35' E 010°06'0 0.0
2016-Jul-20 10:32N 42°35' E 010°06'0 0.0
2016-Jul-20 09:33N 42°35' E 010°06'7 6.8
2016-Jul-20 08:32N 42°38' E 010°15'1313.0
2016-Jul-20 07:33N 42°47' E 010°27'8 8.5
2016-Jul-20 06:33N 42°54' E 010°32'1 0.9
2016-Jul-20 05:26N 42°53' E 010°32'5 0.7
2016-Jul-19 22:25N 42°50' E 010°28'8 4.0
2016-Jul-19 20:31N 42°56' E 010°33'0 0.0
2016-Jul-19 19:29N 42°56' E 010°33'0 0.0
2016-Jul-19 18:25N 42°56' E 010°33'0 0.0
2016-Jul-19 17:33N 42°56' E 010°33'0 0.0
2016-Jul-19 16:32N 42°56' E 010°33'0 0.0
2016-Jul-19 14:32N 42°56' E 010°33'0 0.0
2016-Jul-19 12:06N 42°56' E 010°33'0 0.0
2016-Jul-19 11:29N 42°56' E 010°33'1 0.7
2016-Jul-19 10:33N 42°56' E 010°34'10 4.7
2016-Jul-19 08:25N 42°47' E 010°27'5 0.4
2016-Jul-18 17:33N 42°52' E 010°30'0 0.3
2016-Jul-18 16:17N 42°52' E 010°30'3 4.1
2016-Jul-18 15:29N 42°49' E 010°27'5 1.8
2016-Jul-18 12:33N 42°53' E 010°31'3 2.2
2016-Jul-18 11:11N 42°56' E 010°33'6 3.4
2016-Jul-18 09:33N 42°51' E 010°29'6 5.6
2016-Jul-18 08:33N 42°56' E 010°34'2 0.8
2016-Jul-18 06:33N 42°54' E 010°32'3 2.2
2016-Jul-18 05:24N 42°52' E 010°30'2 0.2
2016-Jul-17 17:27N 42°54' E 010°32'6 3.1
2016-Jul-17 15:30N 42°49' E 010°27'6 2.0
2016-Jul-17 12:32N 42°54' E 010°32'2 0.1
2016-Jul-16 17:33N 42°52' E 010°30'4 2.1
2016-Jul-16 15:32N 42°49' E 010°26'8 8.3
2016-Jul-16 14:33N 42°56' E 010°33'2 1.2
2016-Jul-16 12:33N 42°54' E 010°32'3 2.0
2016-Jul-16 11:09N 42°56' E 010°34'5 3.2
2016-Jul-16 09:33N 42°52' E 010°30'  
Track history (hours):
 
Tides and Currents Weather Stations Pressure Air Temp Water Temp Dewpoint Dewpoint Depression Visibility Wind Speed Wind Dir Waves Ship Positions

G.bellini

Last reported at 2016-Jul-25 11:29 UTC. Time now 2016-Jul-25 11:59 UTC.
Position N 42°56' E 010°33'.

Length 72 m; draft 3.3 m.

Type: Ship. MMSI: 247041900.

Date/timePositionNaut miles runAvg speedWind from/ knotsBaromVisibWave heightAir tempDewpointWater temp
2016-Jul-25 11:29N 42°56' E 010°33'5 2.6
2016-Jul-25 09:33N 42°51' E 010°30'5 4.7
2016-Jul-25 08:33N 42°55' E 010°34'1 0.4
2016-Jul-25 06:33N 42°55' E 010°33'3 0.2
2016-Jul-24 17:33N 42°52' E 010°30'2 1.0
2016-Jul-24 15:23N 42°51' E 010°29'4 1.4
2016-Jul-24 12:33N 42°54' E 010°32'2 1.7
2016-Jul-24 11:13N 42°56' E 010°33'4 2.2
2016-Jul-24 09:33N 42°53' E 010°31'0 0.2
2016-Jul-24 08:21N 42°53' E 010°31'2 1.2
2016-Jul-24 06:33N 42°54' E 010°33'2 0.2
2016-Jul-23 17:32N 42°53' E 010°31'0 0.3
2016-Jul-23 16:25N 42°52' E 010°30'4 4.7
2016-Jul-23 15:33N 42°49' E 010°27'4 0.2
2016-Jul-22 17:33N 42°52' E 010°31'1 0.8
2016-Jul-22 16:26N 42°53' E 010°31'5 5.6
2016-Jul-22 15:31N 42°49' E 010°27'8 6.3
2016-Jul-22 14:17N 42°56' E 010°33'3 1.6
2016-Jul-22 12:33N 42°53' E 010°31'3 2.2
2016-Jul-22 11:08N 42°56' E 010°34'6 3.5
2016-Jul-22 09:33N 42°51' E 010°30'5 4.9
2016-Jul-22 08:33N 42°55' E 010°34'8 0.5
2016-Jul-21 16:09N 42°49' E 010°27'3 1.2
2016-Jul-21 13:33N 42°51' E 010°29'2 0.4
2016-Jul-21 08:19N 42°53' E 010°32'5 0.3
2016-Jul-20 16:09N 42°49' E 010°27'8 8.5
2016-Jul-20 15:11N 42°56' E 010°33'29 7.8
2016-Jul-20 11:32N 42°35' E 010°06'0 0.0
2016-Jul-20 10:32N 42°35' E 010°06'0 0.0
2016-Jul-20 09:33N 42°35' E 010°06'7 6.8
2016-Jul-20 08:32N 42°38' E 010°15'1313.0
2016-Jul-20 07:33N 42°47' E 010°27'8 8.5
2016-Jul-20 06:33N 42°54' E 010°32'1 0.9
2016-Jul-20 05:26N 42°53' E 010°32'5 0.7
2016-Jul-19 22:25N 42°50' E 010°28'8 4.0
2016-Jul-19 20:31N 42°56' E 010°33'0 0.0
2016-Jul-19 19:29N 42°56' E 010°33'0 0.0
2016-Jul-19 18:25N 42°56' E 010°33'0 0.0
2016-Jul-19 17:33N 42°56' E 010°33'0 0.0
2016-Jul-19 16:32N 42°56' E 010°33'0 0.0
2016-Jul-19 14:32N 42°56' E 010°33'0 0.0
2016-Jul-19 12:06N 42°56' E 010°33'0 0.0
2016-Jul-19 11:29N 42°56' E 010°33'1 0.7
2016-Jul-19 10:33N 42°56' E 010°34'10 4.7
2016-Jul-19 08:25N 42°47' E 010°27'5 0.4
2016-Jul-18 17:33N 42°52' E 010°30'0 0.3
2016-Jul-18 16:17N 42°52' E 010°30'3 4.1
2016-Jul-18 15:29N 42°49' E 010°27'5 1.8
2016-Jul-18 12:33N 42°53' E 010°31'3 2.2
2016-Jul-18 11:11N 42°56' E 010°33'6 3.4
2016-Jul-18 09:33N 42°51' E 010°29'6 5.6
2016-Jul-18 08:33N 42°56' E 010°34'2 0.8
2016-Jul-18 06:33N 42°54' E 010°32'3 2.2
2016-Jul-18 05:24N 42°52' E 010°30'2 0.2
2016-Jul-17 17:27N 42°54' E 010°32'6 3.1
2016-Jul-17 15:30N 42°49' E 010°27'6 2.0
2016-Jul-17 12:32N 42°54' E 010°32'2 0.1
2016-Jul-16 17:33N 42°52' E 010°30'4 2.1
2016-Jul-16 15:32N 42°49' E 010°26'8 8.3
2016-Jul-16 14:33N 42°56' E 010°33'2 1.2
2016-Jul-16 12:33N 42°54' E 010°32'3 2.0
2016-Jul-16 11:09N 42°56' E 010°34'5 3.2
2016-Jul-16 09:33N 42°52' E 010°30'  

Dump ship's entire track history